createdAt,value
2019-01-18T00:00:10.272Z,5.97
2019-01-18T00:02:51.249Z,2.67
2019-01-18T00:05:31.830Z,6.27
2019-01-18T00:08:12.724Z,4.17
2019-01-18T00:10:53.175Z,2.43
2019-01-18T00:13:34.067Z,9.67
2019-01-18T00:16:14.620Z,7.10
2019-01-18T00:18:55.451Z,3.47
2019-01-18T00:21:36.578Z,5.63
2019-01-18T00:24:17.569Z,9.30
2019-01-18T00:26:46.053Z,5.73
2019-01-18T00:29:14.519Z,9.60
2019-01-18T00:31:43.056Z,4.50
2019-01-18T00:34:11.559Z,5.77
2019-01-18T00:36:41.858Z,9.63
2019-01-18T00:39:10.609Z,7.00
2019-01-18T00:41:39.162Z,4.37
2019-01-18T00:44:07.640Z,4.80
2019-01-18T00:46:36.137Z,12.00
2019-01-18T00:49:04.758Z,7.60
2019-01-18T00:51:33.296Z,4.17
2019-01-18T00:54:01.839Z,6.00
2019-01-18T00:56:30.293Z,5.00
2019-01-18T00:58:58.756Z,3.73
2019-01-18T01:01:27.308Z,11.67
2019-01-18T01:03:55.857Z,7.17
2019-01-18T01:06:24.465Z,7.60
2019-01-18T01:08:53.078Z,4.93
2019-01-18T01:11:21.799Z,3.37
2019-01-18T01:13:50.281Z,5.70
2019-01-18T01:16:18.814Z,9.23
2019-01-18T01:18:47.345Z,3.23
2019-01-18T01:21:15.824Z,3.27
2019-01-18T01:23:44.384Z,3.83
2019-01-18T01:26:12.889Z,4.07
2019-01-18T01:28:42.529Z,3.33
2019-01-18T01:31:11.077Z,5.53
2019-01-18T01:33:39.567Z,7.93
2019-01-18T01:36:08.162Z,2.97
2019-01-18T01:38:36.634Z,3.87
2019-01-18T01:41:05.157Z,3.87
2019-01-18T01:43:33.628Z,4.20
2019-01-18T01:46:02.143Z,3.17
2019-01-18T01:48:30.771Z,6.23
2019-01-18T01:50:59.223Z,7.23
2019-01-18T01:53:27.707Z,2.53
2019-01-18T01:55:56.187Z,6.83
2019-01-18T01:58:24.642Z,7.87
2019-01-18T02:00:53.151Z,12.53
2019-01-18T02:03:21.675Z,4.50
2019-01-18T02:05:50.135Z,4.93
2019-01-18T02:08:18.671Z,7.37
2019-01-18T02:10:47.185Z,10.07
2019-01-18T02:13:15.717Z,6.50
2019-01-18T02:15:44.361Z,5.90
2019-01-18T02:18:12.843Z,6.20
2019-01-18T02:20:41.324Z,5.47
2019-01-18T02:23:09.802Z,7.90
2019-01-18T02:25:38.273Z,8.27
2019-01-18T02:28:06.745Z,3.00
2019-01-18T02:30:35.182Z,5.10
2019-01-18T02:33:03.804Z,4.10
2019-01-18T02:35:32.256Z,6.20
2019-01-18T02:38:00.723Z,4.33
2019-01-18T02:40:29.284Z,7.57
2019-01-18T02:42:57.730Z,5.13
2019-01-18T02:45:26.288Z,4.03
2019-01-18T02:47:55.251Z,1.87
2019-01-18T02:50:23.858Z,5.83
2019-01-18T02:52:52.404Z,6.83
2019-01-18T02:55:28.549Z,6.87
2019-01-18T02:57:51.737Z,5.57
2019-01-18T03:00:22.111Z,4.67
2019-01-18T03:02:50.884Z,6.77
2019-01-18T03:05:22.916Z,6.97
2019-01-18T03:07:51.843Z,5.97
2019-01-18T03:10:23.392Z,6.87
2019-01-18T03:12:52.370Z,6.20
2019-01-18T03:15:21.323Z,11.03
2019-01-18T03:17:50.198Z,7.97
2019-01-18T03:20:19.874Z,9.70
2019-01-18T03:22:48.784Z,5.03
2019-01-18T03:25:23.353Z,5.93
2019-01-18T03:27:52.073Z,5.53
2019-01-18T03:30:21.489Z,8.87
2019-01-18T03:32:50.490Z,3.77
2019-01-18T03:35:21.406Z,5.83
2019-01-18T03:37:50.319Z,5.63
2019-01-18T03:40:20.709Z,3.33
2019-01-18T03:42:50.364Z,7.27
2019-01-18T03:45:20.001Z,3.47
2019-01-18T03:47:48.765Z,9.30
2019-01-18T03:50:22.435Z,6.10
2019-01-18T03:52:51.021Z,8.40
2019-01-18T03:55:19.983Z,6.10
2019-01-18T03:57:48.696Z,6.87
2019-01-18T04:00:25.723Z,8.37
2019-01-18T04:02:50.247Z,14.83
2019-01-18T04:05:18.840Z,7.97
2019-01-18T04:07:47.289Z,6.10
2019-01-18T04:10:20.552Z,9.13
2019-01-18T04:12:49.189Z,4.73
2019-01-18T04:15:19.296Z,7.87
2019-01-18T04:17:47.917Z,9.57
2019-01-18T04:20:17.878Z,12.73
2019-01-18T04:22:46.582Z,7.50
2019-01-18T04:25:16.909Z,6.90
2019-01-18T04:27:45.466Z,5.30
2019-01-18T04:30:16.189Z,4.87
2019-01-18T04:32:44.811Z,8.80
2019-01-18T04:35:13.918Z,5.37
2019-01-18T04:37:42.523Z,7.97
2019-01-18T04:40:13.927Z,5.27
2019-01-18T04:42:42.456Z,9.93
2019-01-18T04:45:11.034Z,6.43
2019-01-18T04:47:39.517Z,9.07
2019-01-18T04:50:13.938Z,6.53
2019-01-18T04:52:42.474Z,5.50
2019-01-18T04:55:11.125Z,8.03
2019-01-18T04:57:39.737Z,8.77
2019-01-18T05:00:16.971Z,9.70
2019-01-18T05:02:45.540Z,11.00
2019-01-18T05:05:14.346Z,12.93
2019-01-18T05:07:42.831Z,6.40
2019-01-18T05:10:13.732Z,7.93
2019-01-18T05:12:42.343Z,9.53
2019-01-18T05:15:13.738Z,11.10
2019-01-18T05:17:42.339Z,7.60
2019-01-18T05:20:12.072Z,11.23
2019-01-18T05:22:40.584Z,4.23
2019-01-18T05:25:11.505Z,9.23
2019-01-18T05:27:40.040Z,6.90
2019-01-18T05:30:25.275Z,12.30
2019-01-18T05:32:53.885Z,7.63
2019-01-18T05:35:22.604Z,11.00
2019-01-18T05:37:51.175Z,11.07
2019-01-18T05:40:21.374Z,6.63
2019-01-18T05:42:49.975Z,11.73
2019-01-18T05:45:20.930Z,7.07
2019-01-18T05:47:49.546Z,10.33
2019-01-18T05:50:20.415Z,8.13
2019-01-18T05:52:48.942Z,8.23
2019-01-18T05:55:17.568Z,12.83
2019-01-18T05:57:46.087Z,12.67
2019-01-18T06:00:19.268Z,7.33
2019-01-18T06:02:47.731Z,7.87
2019-01-18T06:05:18.724Z,7.07
2019-01-18T06:07:47.250Z,10.17
2019-01-18T06:10:15.819Z,5.77
2019-01-18T06:12:44.777Z,6.90
2019-01-18T06:15:13.380Z,11.00
2019-01-18T06:17:41.921Z,10.30
2019-01-18T06:20:15.909Z,6.17
2019-01-18T06:22:44.548Z,10.93
2019-01-18T06:25:13.224Z,7.83
2019-01-18T06:27:41.836Z,14.27
2019-01-18T06:30:21.547Z,9.20
2019-01-18T06:32:50.047Z,11.43
2019-01-18T06:35:19.432Z,7.20
2019-01-18T06:37:47.974Z,8.07
2019-01-18T06:40:18.765Z,6.23
2019-01-18T06:42:47.253Z,11.13
2019-01-18T06:45:18.441Z,4.83
2019-01-18T06:47:46.909Z,8.10
2019-01-18T06:50:17.318Z,10.20
2019-01-18T06:52:45.853Z,9.73
2019-01-18T06:55:14.443Z,10.37
2019-01-18T06:57:43.070Z,11.03
2019-01-18T07:00:26.556Z,9.97
2019-01-18T07:02:55.162Z,7.30
2019-01-18T07:05:23.835Z,9.50
2019-01-18T07:07:52.437Z,10.77
2019-01-18T07:10:25.946Z,11.10
2019-01-18T07:12:54.526Z,9.67
2019-01-18T07:15:23.130Z,6.77
2019-01-18T07:17:51.755Z,8.70
2019-01-18T07:20:21.201Z,10.27
2019-01-18T07:22:49.806Z,9.40
2019-01-18T07:25:23.540Z,7.73
2019-01-18T07:27:52.145Z,5.97
2019-01-18T07:30:26.322Z,4.60
2019-01-18T07:32:54.921Z,7.70
2019-01-18T07:35:23.456Z,6.90
2019-01-18T07:37:51.928Z,8.83
2019-01-18T07:40:20.455Z,11.47
2019-01-18T07:42:48.998Z,8.40
2019-01-18T07:45:20.385Z,7.73
2019-01-18T07:47:48.907Z,10.43
2019-01-18T07:50:20.071Z,7.93
2019-01-18T07:52:47.911Z,8.90
2019-01-18T07:55:16.580Z,5.63
2019-01-18T07:57:45.271Z,11.57
2019-01-18T08:00:16.762Z,10.37
2019-01-18T08:02:45.276Z,13.30
2019-01-18T08:05:13.908Z,8.97
2019-01-18T08:07:42.507Z,10.63
2019-01-18T08:10:16.111Z,12.43
2019-01-18T08:12:44.730Z,12.37
2019-01-18T08:15:16.004Z,10.67
2019-01-18T08:17:44.544Z,13.20
2019-01-18T08:20:15.580Z,10.20
2019-01-18T08:22:44.209Z,14.23
2019-01-18T08:25:14.416Z,7.77
2019-01-18T08:27:43.016Z,13.60
2019-01-18T08:30:17.028Z,12.10
2019-01-18T08:32:45.622Z,9.07
2019-01-18T08:35:16.140Z,10.73
2019-01-18T08:37:44.842Z,11.03
2019-01-18T08:40:15.957Z,7.67
2019-01-18T08:42:44.682Z,10.63
2019-01-18T08:45:22.158Z,13.73
2019-01-18T08:47:50.708Z,8.00
2019-01-18T08:50:20.268Z,7.93
2019-01-18T08:52:48.846Z,10.97
2019-01-18T08:55:17.392Z,14.57
2019-01-18T08:57:45.946Z,8.83
2019-01-18T09:00:17.494Z,10.13
2019-01-18T09:02:46.022Z,10.70
2019-01-18T09:05:16.982Z,11.30
2019-01-18T09:07:45.475Z,12.10
2019-01-18T09:10:16.878Z,10.90
2019-01-18T09:12:45.493Z,12.53
2019-01-18T09:15:14.318Z,10.13
2019-01-18T09:17:43.005Z,13.53
2019-01-18T09:20:14.774Z,9.37
2019-01-18T09:22:43.326Z,9.43
2019-01-18T09:25:11.985Z,11.57
2019-01-18T09:27:40.436Z,10.97
2019-01-18T09:30:18.982Z,8.57
2019-01-18T09:32:48.096Z,9.73
2019-01-18T09:35:18.988Z,8.63
2019-01-18T09:37:47.777Z,8.83
2019-01-18T09:40:19.026Z,11.07
2019-01-18T09:42:47.509Z,14.93
2019-01-18T09:45:16.098Z,8.53
2019-01-18T09:47:44.718Z,11.30
2019-01-18T09:50:18.747Z,13.60
2019-01-18T09:52:47.557Z,13.40
2019-01-18T09:55:16.235Z,10.17
2019-01-18T09:57:44.838Z,11.07
2019-01-18T10:00:24.746Z,12.13
2019-01-18T10:02:53.338Z,8.47
2019-01-18T10:05:22.246Z,11.73
2019-01-18T10:07:50.820Z,9.40
2019-01-18T10:10:20.784Z,11.33
2019-01-18T10:12:49.900Z,9.67
2019-01-18T10:15:24.148Z,10.37
2019-01-18T10:17:52.632Z,10.97
2019-01-18T10:20:21.165Z,12.70
2019-01-18T10:22:50.488Z,12.10
2019-01-18T10:25:19.514Z,13.40
2019-01-18T10:27:48.105Z,9.47
2019-01-18T10:30:22.110Z,12.57
2019-01-18T10:32:50.951Z,12.77
2019-01-18T10:35:19.588Z,10.47
2019-01-18T10:37:48.293Z,9.63
2019-01-18T10:40:17.378Z,10.73
2019-01-18T10:42:47.666Z,6.87
2019-01-18T10:45:17.794Z,8.67
2019-01-18T10:47:46.892Z,9.97
2019-01-18T10:50:20.597Z,9.00
2019-01-18T10:52:49.201Z,11.20
2019-01-18T10:55:17.922Z,11.50
2019-01-18T10:57:46.670Z,12.50
2019-01-18T11:00:23.747Z,7.23
2019-01-18T11:02:52.926Z,9.20
2019-01-18T11:05:22.615Z,10.97
2019-01-18T11:07:51.255Z,12.33
2019-01-18T11:10:19.917Z,10.73
2019-01-18T11:12:48.893Z,10.43
2019-01-18T11:15:25.793Z,13.10
2019-01-18T11:17:54.269Z,7.40
2019-01-18T11:20:28.460Z,12.27
2019-01-18T11:22:58.628Z,11.60
2019-01-18T11:25:31.804Z,9.23
2019-01-18T11:27:57.730Z,12.57
2019-01-18T11:30:26.294Z,12.00
2019-01-18T11:32:54.763Z,12.50
2019-01-18T11:35:23.401Z,8.70
2019-01-18T11:37:52.097Z,10.93
2019-01-18T11:40:22.589Z,10.53
2019-01-18T11:43:10.537Z,9.90
2019-01-18T11:45:58.419Z,12.27
2019-01-18T11:48:38.787Z,8.00
2019-01-18T11:51:20.157Z,13.97
2019-01-18T11:54:00.801Z,12.23
2019-01-18T11:56:41.460Z,12.33
2019-01-18T11:59:22.360Z,12.60
2019-01-18T12:02:02.806Z,10.63
2019-01-18T12:04:44.051Z,8.93
2019-01-18T12:07:24.877Z,11.50
2019-01-18T12:10:05.990Z,11.17
2019-01-18T12:12:46.757Z,13.03
2019-01-18T12:15:27.237Z,10.50
2019-01-18T12:18:07.707Z,9.50
2019-01-18T12:20:48.760Z,11.17
2019-01-18T12:23:29.566Z,11.80
2019-01-18T12:26:10.247Z,10.43
2019-01-18T12:28:51.135Z,10.63
2019-01-18T12:31:33.295Z,11.30
2019-01-18T12:34:14.472Z,9.93
2019-01-18T12:36:58.972Z,11.37
2019-01-18T12:39:39.148Z,11.87
2019-01-18T12:42:19.713Z,9.83
2019-01-18T12:45:01.260Z,9.03
2019-01-18T12:47:42.460Z,12.03
2019-01-18T12:56:34.164Z,14.60
2019-01-18T12:59:15.136Z,14.67
2019-01-18T13:01:55.589Z,11.37
2019-01-18T13:04:36.209Z,15.70
2019-01-18T13:07:16.664Z,13.47
2019-01-18T13:09:57.568Z,14.40
2019-01-18T13:12:38.304Z,12.10
2019-01-18T13:15:19.273Z,12.50
2019-01-18T13:18:00.110Z,11.30
2019-01-18T13:20:40.380Z,8.70
2019-01-18T13:23:21.152Z,12.43
2019-01-18T13:26:01.929Z,13.83
2019-01-18T13:28:42.681Z,10.83
2019-01-18T13:31:23.965Z,14.80
2019-01-18T13:34:03.217Z,9.90
2019-01-18T13:36:43.967Z,12.03
2019-01-18T13:39:24.711Z,14.67
2019-01-18T13:42:05.268Z,16.80
2019-01-18T13:44:45.792Z,17.13
2019-01-18T13:47:26.172Z,14.53
2019-01-18T13:50:06.975Z,14.13
2019-01-18T13:52:48.697Z,13.97
2019-01-18T13:55:29.949Z,14.10
2019-01-18T13:58:13.497Z,14.83
2019-01-18T14:00:54.574Z,15.20
2019-01-18T14:03:35.667Z,17.90
2019-01-18T14:06:16.109Z,21.10
2019-01-18T14:08:56.475Z,19.37
2019-01-18T14:11:37.354Z,14.70
2019-01-18T14:14:19.008Z,20.77
2019-01-18T14:16:59.774Z,20.20
2019-01-18T14:19:40.901Z,21.63
2019-01-18T14:22:21.754Z,21.43
2019-01-18T14:25:02.444Z,24.50
2019-01-18T14:27:43.047Z,25.70
2019-01-18T14:30:24.265Z,33.50
2019-01-18T14:33:05.068Z,32.73
2019-01-18T14:35:45.547Z,22.67
2019-01-18T14:38:26.146Z,26.03
2019-01-18T14:41:07.781Z,28.10
2019-01-18T14:43:49.590Z,21.43
2019-01-18T14:46:30.044Z,27.57
2019-01-18T14:49:10.532Z,30.30
2019-01-18T14:51:51.360Z,24.07
2019-01-18T14:54:32.418Z,21.87
2019-01-18T14:57:13.621Z,26.23
2019-01-18T14:59:54.404Z,24.57
2019-01-18T15:02:35.292Z,28.83
2019-01-18T15:05:15.812Z,24.23
2019-01-18T15:07:56.355Z,26.17
2019-01-18T15:10:37.483Z,25.93
2019-01-18T15:13:17.896Z,26.80
2019-01-18T15:15:58.557Z,25.10
2019-01-18T15:18:39.013Z,22.90
2019-01-18T15:21:19.575Z,27.23
2019-01-18T15:24:01.606Z,23.73
2019-01-18T15:26:42.730Z,18.40
2019-01-18T15:29:23.623Z,21.77
2019-01-18T15:32:04.127Z,22.97
2019-01-18T15:34:44.749Z,24.10
2019-01-18T15:37:25.748Z,24.23
2019-01-18T15:40:06.016Z,24.23
2019-01-18T15:42:46.793Z,24.13
2019-01-18T15:45:27.593Z,21.23
2019-01-18T15:48:08.326Z,21.93
2019-01-18T15:50:48.989Z,20.97
2019-01-18T15:53:29.964Z,21.27
2019-01-18T15:56:10.835Z,23.37
2019-01-18T15:58:51.484Z,21.43
2019-01-18T16:01:32.346Z,23.87
2019-01-18T16:04:13.314Z,23.53
2019-01-18T16:06:54.245Z,27.17
2019-01-18T16:09:35.057Z,24.10
2019-01-18T16:12:15.684Z,22.60
2019-01-18T16:14:57.998Z,23.37
2019-01-18T16:17:36.895Z,23.33
2019-01-18T16:20:17.097Z,23.83
2019-01-18T16:22:58.028Z,24.97
2019-01-18T16:25:41.148Z,21.63
2019-01-18T16:28:22.317Z,25.00
2019-01-18T16:31:03.190Z,24.60
2019-01-18T16:33:44.027Z,27.37
2019-01-18T16:36:24.813Z,23.70
2019-01-18T16:39:07.260Z,29.77
2019-01-18T16:41:47.914Z,34.90
2019-01-18T16:44:28.775Z,31.00
2019-01-18T16:47:09.729Z,30.33
2019-01-18T16:49:53.439Z,27.20
2019-01-18T16:52:34.110Z,23.97
2019-01-18T16:55:15.687Z,26.73
2019-01-18T16:57:55.509Z,27.07
2019-01-18T17:03:36.921Z,24.73
2019-01-18T17:06:17.497Z,32.97
2019-01-18T17:08:58.719Z,26.87
2019-01-18T17:11:40.137Z,25.17
2019-01-18T17:14:20.659Z,23.20
2019-01-18T17:17:01.327Z,22.93
2019-01-18T17:19:42.156Z,27.47
2019-01-18T17:22:22.793Z,23.60
2019-01-18T17:25:03.470Z,25.50
2019-01-18T17:27:44.205Z,22.07
2019-01-18T17:30:25.073Z,22.73
2019-01-18T17:33:05.907Z,28.33
2019-01-18T17:35:46.648Z,24.40
2019-01-18T17:38:27.486Z,23.70
2019-01-18T17:41:08.266Z,32.07
2019-01-18T17:43:48.893Z,24.37
2019-01-18T17:46:29.541Z,30.40
2019-01-18T17:49:12.373Z,30.13
2019-01-18T17:51:52.760Z,32.83
2019-01-18T17:54:33.848Z,29.17
2019-01-18T17:57:14.676Z,27.73
2019-01-18T17:59:55.547Z,28.97
2019-01-18T18:02:36.494Z,26.47
2019-01-18T18:05:20.432Z,26.60
2019-01-18T18:08:01.218Z,26.03
2019-01-18T18:10:42.246Z,27.20
2019-01-18T18:13:23.252Z,37.47
2019-01-18T18:16:04.319Z,40.80
2019-01-18T18:18:46.865Z,53.10
2019-01-18T18:21:30.548Z,40.97
2019-01-18T18:24:10.918Z,40.53
2019-01-18T18:26:51.569Z,68.77
2019-01-18T18:29:32.069Z,39.87
2019-01-18T18:32:12.504Z,37.40
2019-01-18T18:34:53.701Z,39.43
2019-01-18T18:37:34.688Z,39.90
2019-01-18T18:40:15.433Z,37.17
2019-01-18T18:42:56.127Z,42.70
2019-01-18T18:45:36.828Z,39.13
2019-01-18T18:48:17.290Z,44.93
2019-01-18T18:50:57.900Z,38.43
2019-01-18T18:53:38.933Z,47.03
2019-01-18T18:56:19.476Z,51.00
2019-01-18T18:59:00.553Z,52.40
2019-01-18T19:01:40.967Z,44.33
2019-01-18T19:04:48.080Z,54.73
2019-01-18T19:07:28.792Z,44.03
2019-01-18T19:10:09.636Z,50.20
2019-01-18T19:12:50.515Z,50.43
2019-01-18T19:15:31.139Z,48.80
2019-01-18T19:18:11.697Z,43.27
2019-01-18T19:20:52.604Z,42.57
2019-01-18T19:23:33.415Z,99.27
2019-01-18T19:26:14.189Z,85.93
2019-01-18T19:28:54.996Z,82.70
2019-01-18T19:31:37.060Z,66.87
2019-01-18T19:34:17.772Z,52.70
2019-01-18T19:36:58.520Z,64.63
2019-01-18T19:39:39.289Z,64.10
2019-01-18T19:42:20.073Z,51.70
2019-01-18T19:45:03.813Z,51.30
2019-01-18T19:47:44.960Z,59.97
2019-01-18T19:50:25.918Z,55.83
2019-01-18T19:53:06.432Z,58.60
2019-01-18T19:55:47.452Z,57.03
2019-01-18T19:58:28.324Z,77.37
2019-01-18T20:01:09.364Z,50.33
2019-01-18T20:03:51.116Z,55.93
2019-01-18T20:06:34.432Z,57.03
2019-01-18T20:09:15.273Z,61.70
2019-01-18T20:11:56.043Z,54.80
2019-01-18T20:14:36.784Z,64.63
2019-01-18T20:17:17.772Z,73.67
2019-01-18T20:19:58.503Z,66.20
2019-01-18T20:22:39.402Z,56.80
2019-01-18T20:25:23.207Z,55.63
2019-01-18T20:28:04.204Z,56.90
2019-01-18T20:30:48.888Z,70.57
2019-01-18T20:33:30.088Z,64.50
2019-01-18T20:36:10.627Z,53.60
2019-01-18T20:38:51.181Z,62.13
2019-01-18T20:41:31.921Z,70.23
2019-01-18T20:44:12.609Z,68.47
2019-01-18T20:46:53.584Z,67.07
2019-01-18T20:49:34.526Z,59.57
2019-01-18T20:52:15.141Z,57.43
2019-01-18T20:54:55.818Z,75.07
2019-01-18T20:57:36.639Z,63.90
2019-01-18T21:00:17.157Z,57.20
2019-01-18T21:02:57.631Z,61.53
2019-01-18T21:05:38.141Z,70.27
2019-01-18T21:08:19.085Z,66.43
2019-01-18T21:10:59.964Z,80.30
2019-01-18T21:13:40.927Z,61.23
2019-01-18T21:16:21.709Z,78.27
2019-01-18T21:19:02.433Z,79.27
2019-01-18T21:21:43.070Z,53.37
2019-01-18T21:24:23.946Z,58.03
2019-01-18T21:27:04.814Z,70.27
2019-01-18T21:29:45.608Z,68.77
2019-01-18T21:32:26.529Z,74.93
2019-01-18T21:35:07.537Z,80.90
2019-01-18T21:37:48.095Z,66.23
2019-01-18T21:40:29.001Z,67.12
2019-01-18T21:43:09.646Z,65.27
2019-01-18T21:45:50.665Z,72.10
2019-01-18T21:48:59.860Z,55.80
2019-01-18T21:52:07.049Z,51.63
2019-01-18T21:54:48.059Z,51.97
2019-01-18T21:57:28.730Z,97.13
2019-01-18T22:00:09.741Z,60.77
2019-01-18T22:02:50.859Z,57.70
2019-01-18T22:05:31.377Z,57.57
2019-01-18T22:08:12.094Z,119.37
2019-01-18T22:10:53.110Z,59.00
2019-01-18T22:13:34.227Z,88.97
2019-01-18T22:16:14.849Z,63.87
2019-01-18T22:18:55.742Z,67.70
2019-01-18T22:21:36.914Z,53.40
2019-01-18T22:24:17.571Z,66.53
2019-01-18T22:26:58.427Z,149.03
2019-01-18T22:29:39.621Z,81.30
2019-01-18T22:32:20.661Z,71.13
2019-01-18T22:35:01.401Z,64.07
2019-01-18T22:37:42.376Z,55.03
2019-01-18T22:40:23.761Z,70.77
2019-01-18T22:43:04.551Z,63.53
2019-01-18T22:45:45.558Z,60.27
2019-01-18T22:48:26.584Z,65.37
2019-01-18T22:51:07.172Z,74.37
2019-01-18T22:53:47.974Z,115.03
2019-01-18T22:56:28.581Z,63.87
2019-01-18T22:59:09.374Z,71.17
2019-01-18T23:01:50.354Z,73.20
2019-01-18T23:04:31.016Z,73.53
2019-01-18T23:07:11.764Z,62.20
2019-01-18T23:09:52.590Z,64.13
2019-01-18T23:12:34.960Z,72.10
2019-01-18T23:15:42.217Z,75.73
2019-01-18T23:18:49.401Z,69.50
2019-01-18T23:21:30.431Z,67.03
2019-01-18T23:24:11.462Z,61.17
2019-01-18T23:26:52.672Z,60.30
2019-01-18T23:29:33.525Z,58.23
2019-01-18T23:32:14.455Z,61.07
2019-01-18T23:34:54.804Z,59.60
2019-01-18T23:37:35.699Z,60.10
2019-01-18T23:40:16.389Z,52.80
2019-01-18T23:42:57.162Z,53.80
2019-01-18T23:45:38.153Z,57.03
2019-01-18T23:48:18.732Z,56.83
2019-01-18T23:50:59.288Z,55.63
2019-01-18T23:53:44.289Z,58.00
2019-01-18T23:56:22.974Z,60.43
2019-01-18T23:59:03.848Z,61.60
